sensor_id;sensor_type;location;lat;lon;timestamp;P1;durP1;ratioP1;P2;durP2;ratioP2
45236;SDS011;30973;51.442;3.580;2023-07-08T00:00:41;7.60;;;3.28;;
45236;SDS011;30973;51.442;3.580;2023-07-08T00:03:07;7.50;;;3.10;;
45236;SDS011;30973;51.442;3.580;2023-07-08T00:05:34;4.18;;;3.00;;
45236;SDS011;30973;51.442;3.580;2023-07-08T00:08:02;6.68;;;3.28;;
45236;SDS011;30973;51.442;3.580;2023-07-08T00:10:29;4.72;;;3.13;;
45236;SDS011;30973;51.442;3.580;2023-07-08T00:12:56;5.90;;;3.00;;
45236;SDS011;30973;51.442;3.580;2023-07-08T00:15:27;5.75;;;3.25;;
45236;SDS011;30973;51.442;3.580;2023-07-08T00:17:54;8.40;;;3.35;;
45236;SDS011;30973;51.442;3.580;2023-07-08T00:22:48;4.53;;;3.20;;
45236;SDS011;30973;51.442;3.580;2023-07-08T00:25:16;4.10;;;3.10;;
45236;SDS011;30973;51.442;3.580;2023-07-08T00:27:43;6.55;;;3.20;;
45236;SDS011;30973;51.442;3.580;2023-07-08T00:30:13;4.00;;;3.38;;
45236;SDS011;30973;51.442;3.580;2023-07-08T00:32:44;7.47;;;3.53;;
45236;SDS011;30973;51.442;3.580;2023-07-08T00:35:11;4.68;;;3.58;;
45236;SDS011;30973;51.442;3.580;2023-07-08T00:37:37;6.70;;;3.60;;
45236;SDS011;30973;51.442;3.580;2023-07-08T00:40:14;4.93;;;3.03;;
45236;SDS011;30973;51.442;3.580;2023-07-08T00:42:42;5.80;;;3.00;;
45236;SDS011;30973;51.442;3.580;2023-07-08T00:45:18;4.85;;;3.50;;
45236;SDS011;30973;51.442;3.580;2023-07-08T00:47:48;5.60;;;3.63;;
45236;SDS011;30973;51.442;3.580;2023-07-08T00:50:16;6.75;;;3.55;;
45236;SDS011;30973;51.442;3.580;2023-07-08T00:52:44;4.63;;;3.20;;
45236;SDS011;30973;51.442;3.580;2023-07-08T00:55:11;5.18;;;3.15;;
45236;SDS011;30973;51.442;3.580;2023-07-08T00:57:39;4.50;;;2.90;;
45236;SDS011;30973;51.442;3.580;2023-07-08T01:00:11;5.10;;;3.53;;
45236;SDS011;30973;51.442;3.580;2023-07-08T01:02:40;4.72;;;3.50;;
45236;SDS011;30973;51.442;3.580;2023-07-08T01:05:10;5.15;;;3.40;;
45236;SDS011;30973;51.442;3.580;2023-07-08T01:07:38;6.72;;;3.45;;
45236;SDS011;30973;51.442;3.580;2023-07-08T01:10:06;5.28;;;3.25;;
45236;SDS011;30973;51.442;3.580;2023-07-08T01:12:36;4.63;;;3.20;;
45236;SDS011;30973;51.442;3.580;2023-07-08T01:15:03;5.30;;;3.05;;
45236;SDS011;30973;51.442;3.580;2023-07-08T01:17:30;4.97;;;3.15;;
45236;SDS011;30973;51.442;3.580;2023-07-08T01:20:00;4.25;;;3.13;;
45236;SDS011;30973;51.442;3.580;2023-07-08T01:22:36;7.10;;;3.20;;
45236;SDS011;30973;51.442;3.580;2023-07-08T01:25:03;6.15;;;3.45;;
45236;SDS011;30973;51.442;3.580;2023-07-08T01:27:35;5.00;;;3.22;;
45236;SDS011;30973;51.442;3.580;2023-07-08T01:30:04;6.10;;;3.45;;
45236;SDS011;30973;51.442;3.580;2023-07-08T01:32:31;6.15;;;3.60;;
45236;SDS011;30973;51.442;3.580;2023-07-08T01:35:00;6.22;;;3.40;;
45236;SDS011;30973;51.442;3.580;2023-07-08T01:37:37;6.80;;;3.78;;
45236;SDS011;30973;51.442;3.580;2023-07-08T01:40:16;5.47;;;3.50;;
45236;SDS011;30973;51.442;3.580;2023-07-08T01:42:43;5.45;;;3.55;;
45236;SDS011;30973;51.442;3.580;2023-07-08T01:45:10;6.10;;;3.63;;
45236;SDS011;30973;51.442;3.580;2023-07-08T01:47:37;5.32;;;3.83;;
45236;SDS011;30973;51.442;3.580;2023-07-08T01:50:04;6.57;;;3.40;;
45236;SDS011;30973;51.442;3.580;2023-07-08T01:52:31;6.18;;;3.83;;
45236;SDS011;30973;51.442;3.580;2023-07-08T01:54:58;7.55;;;4.55;;
45236;SDS011;30973;51.442;3.580;2023-07-08T01:57:24;5.70;;;3.65;;
45236;SDS011;30973;51.442;3.580;2023-07-08T01:59:51;5.80;;;4.30;;
45236;SDS011;30973;51.442;3.580;2023-07-08T02:02:18;5.97;;;3.88;;
45236;SDS011;30973;51.442;3.580;2023-07-08T02:04:45;5.38;;;4.10;;
45236;SDS011;30973;51.442;3.580;2023-07-08T02:07:12;7.63;;;4.50;;
45236;SDS011;30973;51.442;3.580;2023-07-08T02:09:39;7.10;;;4.30;;
45236;SDS011;30973;51.442;3.580;2023-07-08T02:12:06;6.15;;;4.40;;
45236;SDS011;30973;51.442;3.580;2023-07-08T02:14:33;9.68;;;4.47;;
45236;SDS011;30973;51.442;3.580;2023-07-08T02:16:59;6.30;;;3.90;;
45236;SDS011;30973;51.442;3.580;2023-07-08T02:19:26;6.50;;;4.43;;
45236;SDS011;30973;51.442;3.580;2023-07-08T02:21:54;5.45;;;4.22;;
45236;SDS011;30973;51.442;3.580;2023-07-08T02:24:21;7.05;;;3.70;;
45236;SDS011;30973;51.442;3.580;2023-07-08T02:26:49;5.93;;;3.17;;
45236;SDS011;30973;51.442;3.580;2023-07-08T02:29:15;5.80;;;3.67;;
45236;SDS011;30973;51.442;3.580;2023-07-08T02:31:42;6.53;;;3.70;;
45236;SDS011;30973;51.442;3.580;2023-07-08T02:34:09;4.70;;;3.55;;
45236;SDS011;30973;51.442;3.580;2023-07-08T02:36:36;6.32;;;3.67;;
45236;SDS011;30973;51.442;3.580;2023-07-08T02:39:05;5.82;;;3.33;;
45236;SDS011;30973;51.442;3.580;2023-07-08T02:41:32;6.45;;;4.00;;
45236;SDS011;30973;51.442;3.580;2023-07-08T02:43:58;4.93;;;3.33;;
45236;SDS011;30973;51.442;3.580;2023-07-08T02:46:25;6.47;;;3.55;;
45236;SDS011;30973;51.442;3.580;2023-07-08T02:48:52;5.70;;;3.80;;
45236;SDS011;30973;51.442;3.580;2023-07-08T02:51:18;5.00;;;3.70;;
45236;SDS011;30973;51.442;3.580;2023-07-08T02:53:45;5.50;;;3.42;;
45236;SDS011;30973;51.442;3.580;2023-07-08T02:56:11;5.07;;;3.80;;
45236;SDS011;30973;51.442;3.580;2023-07-08T02:58:38;5.78;;;3.42;;
45236;SDS011;30973;51.442;3.580;2023-07-08T03:01:04;5.18;;;3.75;;
45236;SDS011;30973;51.442;3.580;2023-07-08T03:03:32;5.47;;;3.45;;
45236;SDS011;30973;51.442;3.580;2023-07-08T03:06:02;6.30;;;3.45;;
45236;SDS011;30973;51.442;3.580;2023-07-08T03:08:29;7.63;;;3.80;;
45236;SDS011;30973;51.442;3.580;2023-07-08T03:10:58;8.13;;;4.25;;
45236;SDS011;30973;51.442;3.580;2023-07-08T03:13:26;5.22;;;3.55;;
45236;SDS011;30973;51.442;3.580;2023-07-08T03:15:55;6.25;;;4.20;;
45236;SDS011;30973;51.442;3.580;2023-07-08T03:18:21;7.35;;;5.07;;
45236;SDS011;30973;51.442;3.580;2023-07-08T03:20:52;8.15;;;5.43;;
45236;SDS011;30973;51.442;3.580;2023-07-08T03:23:19;12.48;;;7.20;;
45236;SDS011;30973;51.442;3.580;2023-07-08T03:25:46;12.48;;;7.03;;
45236;SDS011;30973;51.442;3.580;2023-07-08T03:28:14;11.52;;;6.97;;
45236;SDS011;30973;51.442;3.580;2023-07-08T03:30:42;13.43;;;7.78;;
45236;SDS011;30973;51.442;3.580;2023-07-08T03:33:10;12.48;;;8.13;;
45236;SDS011;30973;51.442;3.580;2023-07-08T03:35:39;12.35;;;7.97;;
45236;SDS011;30973;51.442;3.580;2023-07-08T03:38:06;16.45;;;8.30;;
45236;SDS011;30973;51.442;3.580;2023-07-08T03:40:33;14.98;;;7.38;;
45236;SDS011;30973;51.442;3.580;2023-07-08T03:42:59;10.93;;;7.25;;
45236;SDS011;30973;51.442;3.580;2023-07-08T03:45:28;14.20;;;7.10;;
45236;SDS011;30973;51.442;3.580;2023-07-08T03:47:56;10.57;;;6.78;;
45236;SDS011;30973;51.442;3.580;2023-07-08T03:50:23;13.05;;;6.10;;
45236;SDS011;30973;51.442;3.580;2023-07-08T03:52:51;9.45;;;6.00;;
45236;SDS011;30973;51.442;3.580;2023-07-08T03:55:20;8.10;;;5.75;;
45236;SDS011;30973;51.442;3.580;2023-07-08T03:57:46;9.43;;;5.47;;
45236;SDS011;30973;51.442;3.580;2023-07-08T04:00:14;12.63;;;5.30;;
45236;SDS011;30973;51.442;3.580;2023-07-08T04:02:41;11.85;;;5.65;;
45236;SDS011;30973;51.442;3.580;2023-07-08T04:05:13;7.88;;;5.30;;
45236;SDS011;30973;51.442;3.580;2023-07-08T04:07:41;9.32;;;5.35;;
45236;SDS011;30973;51.442;3.580;2023-07-08T04:10:08;6.95;;;4.85;;
45236;SDS011;30973;51.442;3.580;2023-07-08T04:12:35;8.13;;;5.30;;
45236;SDS011;30973;51.442;3.580;2023-07-08T04:15:02;8.45;;;5.55;;
45236;SDS011;30973;51.442;3.580;2023-07-08T04:17:28;7.72;;;5.30;;
45236;SDS011;30973;51.442;3.580;2023-07-08T04:19:55;9.20;;;5.32;;
45236;SDS011;30973;51.442;3.580;2023-07-08T04:22:32;10.02;;;5.60;;
45236;SDS011;30973;51.442;3.580;2023-07-08T04:24:59;7.88;;;5.55;;
45236;SDS011;30973;51.442;3.580;2023-07-08T04:27:25;10.00;;;5.43;;
45236;SDS011;30973;51.442;3.580;2023-07-08T04:29:52;9.02;;;5.15;;
45236;SDS011;30973;51.442;3.580;2023-07-08T04:32:18;9.77;;;4.93;;
45236;SDS011;30973;51.442;3.580;2023-07-08T04:34:45;7.40;;;4.63;;
45236;SDS011;30973;51.442;3.580;2023-07-08T04:37:11;11.13;;;5.25;;
45236;SDS011;30973;51.442;3.580;2023-07-08T04:39:39;9.88;;;5.35;;
45236;SDS011;30973;51.442;3.580;2023-07-08T04:42:05;9.77;;;6.03;;
45236;SDS011;30973;51.442;3.580;2023-07-08T04:44:32;9.50;;;6.07;;
45236;SDS011;30973;51.442;3.580;2023-07-08T04:46:58;10.13;;;5.70;;
45236;SDS011;30973;51.442;3.580;2023-07-08T04:49:25;10.18;;;4.93;;
45236;SDS011;30973;51.442;3.580;2023-07-08T04:54:28;8.02;;;5.38;;
45236;SDS011;30973;51.442;3.580;2023-07-08T04:56:55;6.80;;;5.45;;
45236;SDS011;30973;51.442;3.580;2023-07-08T04:59:22;9.50;;;5.47;;
45236;SDS011;30973;51.442;3.580;2023-07-08T05:01:49;8.45;;;5.32;;
45236;SDS011;30973;51.442;3.580;2023-07-08T05:04:17;6.15;;;5.03;;
45236;SDS011;30973;51.442;3.580;2023-07-08T05:06:44;7.60;;;5.45;;
45236;SDS011;30973;51.442;3.580;2023-07-08T05:09:11;7.65;;;5.50;;
45236;SDS011;30973;51.442;3.580;2023-07-08T05:11:41;7.15;;;5.00;;
45236;SDS011;30973;51.442;3.580;2023-07-08T05:14:08;8.55;;;5.32;;
45236;SDS011;30973;51.442;3.580;2023-07-08T05:16:35;6.47;;;5.32;;
45236;SDS011;30973;51.442;3.580;2023-07-08T05:19:02;12.13;;;6.20;;
45236;SDS011;30973;51.442;3.580;2023-07-08T05:21:29;7.07;;;5.25;;
45236;SDS011;30973;51.442;3.580;2023-07-08T05:24:02;8.60;;;5.60;;
45236;SDS011;30973;51.442;3.580;2023-07-08T05:26:29;9.30;;;5.72;;
45236;SDS011;30973;51.442;3.580;2023-07-08T05:28:56;12.35;;;5.90;;
45236;SDS011;30973;51.442;3.580;2023-07-08T05:31:22;8.02;;;5.65;;
45236;SDS011;30973;51.442;3.580;2023-07-08T05:34:07;10.43;;;6.53;;
45236;SDS011;30973;51.442;3.580;2023-07-08T05:36:34;6.65;;;5.45;;
45236;SDS011;30973;51.442;3.580;2023-07-08T05:39:00;7.68;;;6.05;;
45236;SDS011;30973;51.442;3.580;2023-07-08T05:41:27;8.95;;;6.30;;
45236;SDS011;30973;51.442;3.580;2023-07-08T05:43:53;11.23;;;6.60;;
45236;SDS011;30973;51.442;3.580;2023-07-08T05:46:20;9.05;;;6.20;;
45236;SDS011;30973;51.442;3.580;2023-07-08T05:48:47;9.30;;;6.47;;
45236;SDS011;30973;51.442;3.580;2023-07-08T05:51:15;10.48;;;6.85;;
45236;SDS011;30973;51.442;3.580;2023-07-08T05:53:41;8.60;;;6.38;;
45236;SDS011;30973;51.442;3.580;2023-07-08T05:56:08;9.25;;;6.68;;
45236;SDS011;30973;51.442;3.580;2023-07-08T05:58:35;9.38;;;6.30;;
45236;SDS011;30973;51.442;3.580;2023-07-08T06:01:01;10.88;;;5.88;;
45236;SDS011;30973;51.442;3.580;2023-07-08T06:03:29;12.70;;;5.38;;
45236;SDS011;30973;51.442;3.580;2023-07-08T06:05:55;8.73;;;5.43;;
45236;SDS011;30973;51.442;3.580;2023-07-08T06:08:22;6.43;;;5.00;;
45236;SDS011;30973;51.442;3.580;2023-07-08T06:10:49;6.35;;;5.38;;
45236;SDS011;30973;51.442;3.580;2023-07-08T06:13:16;7.03;;;5.10;;
45236;SDS011;30973;51.442;3.580;2023-07-08T06:15:42;6.60;;;5.45;;
45236;SDS011;30973;51.442;3.580;2023-07-08T06:18:09;6.95;;;4.82;;
45236;SDS011;30973;51.442;3.580;2023-07-08T06:20:36;7.75;;;5.60;;
45236;SDS011;30973;51.442;3.580;2023-07-08T06:23:03;7.20;;;5.50;;
45236;SDS011;30973;51.442;3.580;2023-07-08T06:25:31;7.57;;;5.30;;
45236;SDS011;30973;51.442;3.580;2023-07-08T06:27:58;8.70;;;5.70;;
45236;SDS011;30973;51.442;3.580;2023-07-08T06:30:24;7.85;;;5.75;;
45236;SDS011;30973;51.442;3.580;2023-07-08T06:32:51;7.20;;;5.50;;
45236;SDS011;30973;51.442;3.580;2023-07-08T06:35:18;9.20;;;6.13;;
45236;SDS011;30973;51.442;3.580;2023-07-08T06:37:44;7.55;;;5.55;;
45236;SDS011;30973;51.442;3.580;2023-07-08T06:40:11;9.10;;;6.10;;
45236;SDS011;30973;51.442;3.580;2023-07-08T06:42:38;7.40;;;6.05;;
45236;SDS011;30973;51.442;3.580;2023-07-08T06:45:18;12.23;;;6.13;;
45236;SDS011;30973;51.442;3.580;2023-07-08T06:47:44;10.35;;;6.57;;
45236;SDS011;30973;51.442;3.580;2023-07-08T06:50:12;11.57;;;6.18;;
45236;SDS011;30973;51.442;3.580;2023-07-08T06:52:39;8.63;;;6.25;;
45236;SDS011;30973;51.442;3.580;2023-07-08T06:55:06;11.32;;;6.35;;
45236;SDS011;30973;51.442;3.580;2023-07-08T06:57:33;10.77;;;6.03;;
45236;SDS011;30973;51.442;3.580;2023-07-08T07:00:00;8.70;;;6.20;;
45236;SDS011;30973;51.442;3.580;2023-07-08T07:02:27;9.48;;;6.72;;
45236;SDS011;30973;51.442;3.580;2023-07-08T07:04:54;11.48;;;6.55;;
45236;SDS011;30973;51.442;3.580;2023-07-08T07:07:21;13.98;;;7.10;;
45236;SDS011;30973;51.442;3.580;2023-07-08T07:09:48;8.98;;;7.10;;
45236;SDS011;30973;51.442;3.580;2023-07-08T07:12:15;10.25;;;7.65;;
45236;SDS011;30973;51.442;3.580;2023-07-08T07:14:41;8.32;;;6.78;;
45236;SDS011;30973;51.442;3.580;2023-07-08T07:17:11;8.80;;;6.85;;
45236;SDS011;30973;51.442;3.580;2023-07-08T07:19:37;8.32;;;6.85;;
45236;SDS011;30973;51.442;3.580;2023-07-08T07:22:04;11.15;;;6.85;;
45236;SDS011;30973;51.442;3.580;2023-07-08T07:24:32;8.65;;;7.15;;
45236;SDS011;30973;51.442;3.580;2023-07-08T07:26:58;10.60;;;7.05;;
45236;SDS011;30973;51.442;3.580;2023-07-08T07:29:25;9.25;;;6.97;;
45236;SDS011;30973;51.442;3.580;2023-07-08T07:31:52;8.73;;;7.07;;
45236;SDS011;30973;51.442;3.580;2023-07-08T07:34:18;9.23;;;6.97;;
45236;SDS011;30973;51.442;3.580;2023-07-08T07:36:45;9.10;;;7.03;;
45236;SDS011;30973;51.442;3.580;2023-07-08T07:39:12;8.80;;;6.90;;
45236;SDS011;30973;51.442;3.580;2023-07-08T07:41:38;11.82;;;8.23;;
45236;SDS011;30973;51.442;3.580;2023-07-08T07:44:05;11.23;;;7.60;;
45236;SDS011;30973;51.442;3.580;2023-07-08T07:46:31;10.93;;;8.20;;
45236;SDS011;30973;51.442;3.580;2023-07-08T07:48:58;12.57;;;8.52;;
45236;SDS011;30973;51.442;3.580;2023-07-08T07:51:25;11.05;;;7.50;;
45236;SDS011;30973;51.442;3.580;2023-07-08T07:53:52;13.98;;;8.05;;
45236;SDS011;30973;51.442;3.580;2023-07-08T07:56:19;12.68;;;8.77;;
45236;SDS011;30973;51.442;3.580;2023-07-08T07:58:45;12.15;;;9.55;;
45236;SDS011;30973;51.442;3.580;2023-07-08T08:01:12;10.45;;;9.05;;
45236;SDS011;30973;51.442;3.580;2023-07-08T08:03:39;14.05;;;9.63;;
45236;SDS011;30973;51.442;3.580;2023-07-08T08:06:06;12.43;;;9.48;;
45236;SDS011;30973;51.442;3.580;2023-07-08T08:08:33;13.07;;;9.43;;
45236;SDS011;30973;51.442;3.580;2023-07-08T08:11:03;12.13;;;9.65;;
45236;SDS011;30973;51.442;3.580;2023-07-08T08:13:29;15.55;;;9.93;;
45236;SDS011;30973;51.442;3.580;2023-07-08T08:15:57;14.45;;;10.45;;
45236;SDS011;30973;51.442;3.580;2023-07-08T08:18:24;12.65;;;10.50;;
45236;SDS011;30973;51.442;3.580;2023-07-08T08:20:51;12.13;;;9.70;;
45236;SDS011;30973;51.442;3.580;2023-07-08T08:23:17;10.60;;;8.52;;
45236;SDS011;30973;51.442;3.580;2023-07-08T08:25:44;13.93;;;10.95;;
45236;SDS011;30973;51.442;3.580;2023-07-08T08:28:11;11.73;;;9.38;;
45236;SDS011;30973;51.442;3.580;2023-07-08T08:30:37;12.77;;;10.00;;
45236;SDS011;30973;51.442;3.580;2023-07-08T08:33:04;12.55;;;9.80;;
45236;SDS011;30973;51.442;3.580;2023-07-08T08:35:31;12.77;;;10.15;;
45236;SDS011;30973;51.442;3.580;2023-07-08T08:37:58;12.88;;;9.05;;
45236;SDS011;30973;51.442;3.580;2023-07-08T08:40:24;12.55;;;9.10;;
45236;SDS011;30973;51.442;3.580;2023-07-08T08:42:53;13.85;;;11.18;;
45236;SDS011;30973;51.442;3.580;2023-07-08T08:45:24;13.57;;;11.68;;
45236;SDS011;30973;51.442;3.580;2023-07-08T08:47:59;15.10;;;11.00;;
45236;SDS011;30973;51.442;3.580;2023-07-08T08:50:31;13.45;;;12.02;;
45236;SDS011;30973;51.442;3.580;2023-07-08T08:52:59;13.20;;;11.70;;
45236;SDS011;30973;51.442;3.580;2023-07-08T08:55:26;16.02;;;12.45;;
45236;SDS011;30973;51.442;3.580;2023-07-08T09:00:24;15.38;;;11.65;;
45236;SDS011;30973;51.442;3.580;2023-07-08T09:02:58;14.55;;;11.50;;
45236;SDS011;30973;51.442;3.580;2023-07-08T09:05:25;18.20;;;11.85;;
45236;SDS011;30973;51.442;3.580;2023-07-08T09:13:07;13.38;;;11.80;;
45236;SDS011;30973;51.442;3.580;2023-07-08T09:15:33;16.08;;;11.63;;
45236;SDS011;30973;51.442;3.580;2023-07-08T09:18:03;14.57;;;12.65;;
45236;SDS011;30973;51.442;3.580;2023-07-08T09:20:36;16.52;;;12.60;;
45236;SDS011;30973;51.442;3.580;2023-07-08T09:23:11;14.38;;;11.98;;
45236;SDS011;30973;51.442;3.580;2023-07-08T09:25:58;15.20;;;11.85;;
45236;SDS011;30973;51.442;3.580;2023-07-08T09:28:43;13.48;;;11.07;;
45236;SDS011;30973;51.442;3.580;2023-07-08T09:31:18;11.88;;;10.50;;
45236;SDS011;30973;51.442;3.580;2023-07-08T09:33:47;19.05;;;12.63;;
45236;SDS011;30973;51.442;3.580;2023-07-08T09:36:17;13.32;;;11.25;;
45236;SDS011;30973;51.442;3.580;2023-07-08T09:38:46;15.98;;;11.80;;
45236;SDS011;30973;51.442;3.580;2023-07-08T09:41:25;14.95;;;11.95;;
45236;SDS011;30973;51.442;3.580;2023-07-08T09:44:02;13.10;;;11.20;;
45236;SDS011;30973;51.442;3.580;2023-07-08T09:46:29;16.75;;;10.48;;
45236;SDS011;30973;51.442;3.580;2023-07-08T09:48:56;12.95;;;10.88;;
45236;SDS011;30973;51.442;3.580;2023-07-08T09:51:22;16.92;;;11.63;;
45236;SDS011;30973;51.442;3.580;2023-07-08T09:53:49;12.45;;;10.15;;
45236;SDS011;30973;51.442;3.580;2023-07-08T09:56:16;13.80;;;10.52;;
45236;SDS011;30973;51.442;3.580;2023-07-08T09:58:42;14.00;;;11.70;;
45236;SDS011;30973;51.442;3.580;2023-07-08T10:01:17;14.35;;;11.43;;
45236;SDS011;30973;51.442;3.580;2023-07-08T10:03:46;13.40;;;10.63;;
45236;SDS011;30973;51.442;3.580;2023-07-08T10:06:23;11.50;;;9.77;;
45236;SDS011;30973;51.442;3.580;2023-07-08T10:08:52;15.60;;;10.35;;
45236;SDS011;30973;51.442;3.580;2023-07-08T10:11:28;14.27;;;10.82;;
45236;SDS011;30973;51.442;3.580;2023-07-08T10:14:01;13.68;;;10.43;;
45236;SDS011;30973;51.442;3.580;2023-07-08T10:16:40;15.98;;;11.05;;
45236;SDS011;30973;51.442;3.580;2023-07-08T10:19:17;14.07;;;12.20;;
45236;SDS011;30973;51.442;3.580;2023-07-08T10:22:08;15.52;;;10.68;;
45236;SDS011;30973;51.442;3.580;2023-07-08T10:24:50;12.43;;;9.65;;
45236;SDS011;30973;51.442;3.580;2023-07-08T10:30:35;12.38;;;7.97;;
45236;SDS011;30973;51.442;3.580;2023-07-08T10:35:25;11.35;;;6.82;;
45236;SDS011;30973;51.442;3.580;2023-07-08T10:48:37;11.15;;;8.93;;
45236;SDS011;30973;51.442;3.580;2023-07-08T10:53:50;8.52;;;5.68;;
45236;SDS011;30973;51.442;3.580;2023-07-08T10:56:28;6.55;;;4.90;;
45236;SDS011;30973;51.442;3.580;2023-07-08T11:01:28;11.00;;;6.75;;
45236;SDS011;30973;51.442;3.580;2023-07-08T11:06:40;12.13;;;7.80;;
45236;SDS011;30973;51.442;3.580;2023-07-08T11:09:11;9.15;;;5.85;;
45236;SDS011;30973;51.442;3.580;2023-07-08T11:16:45;9.95;;;6.57;;
45236;SDS011;30973;51.442;3.580;2023-07-08T11:21:45;9.88;;;6.90;;
45236;SDS011;30973;51.442;3.580;2023-07-08T11:24:28;12.93;;;8.45;;
45236;SDS011;30973;51.442;3.580;2023-07-08T11:27:15;16.35;;;10.20;;
45236;SDS011;30973;51.442;3.580;2023-07-08T11:29:49;15.63;;;9.90;;
45236;SDS011;30973;51.442;3.580;2023-07-08T11:32:17;13.68;;;10.80;;
45236;SDS011;30973;51.442;3.580;2023-07-08T11:34:46;14.23;;;9.52;;
45236;SDS011;30973;51.442;3.580;2023-07-08T11:37:14;18.40;;;11.65;;
45236;SDS011;30973;51.442;3.580;2023-07-08T11:39:42;12.75;;;8.85;;
45236;SDS011;30973;51.442;3.580;2023-07-08T11:44:52;9.82;;;6.28;;
45236;SDS011;30973;51.442;3.580;2023-07-08T11:47:22;8.75;;;6.50;;
45236;SDS011;30973;51.442;3.580;2023-07-08T11:49:51;11.75;;;7.00;;
45236;SDS011;30973;51.442;3.580;2023-07-08T11:52:19;15.23;;;7.00;;
45236;SDS011;30973;51.442;3.580;2023-07-08T11:54:46;12.43;;;8.63;;
45236;SDS011;30973;51.442;3.580;2023-07-08T11:57:18;13.73;;;8.55;;
45236;SDS011;30973;51.442;3.580;2023-07-08T11:59:46;10.27;;;6.43;;
45236;SDS011;30973;51.442;3.580;2023-07-08T12:02:14;8.40;;;6.10;;
45236;SDS011;30973;51.442;3.580;2023-07-08T12:07:31;10.00;;;6.20;;
45236;SDS011;30973;51.442;3.580;2023-07-08T12:12:35;9.82;;;6.10;;
45236;SDS011;30973;51.442;3.580;2023-07-08T12:17:37;9.18;;;5.90;;
45236;SDS011;30973;51.442;3.580;2023-07-08T12:20:04;8.68;;;5.20;;
45236;SDS011;30973;51.442;3.580;2023-07-08T12:22:32;9.25;;;5.35;;
45236;SDS011;30973;51.442;3.580;2023-07-08T12:24:59;9.20;;;5.68;;
45236;SDS011;30973;51.442;3.580;2023-07-08T12:27:31;7.47;;;5.80;;
45236;SDS011;30973;51.442;3.580;2023-07-08T12:29:58;8.73;;;5.75;;
45236;SDS011;30973;51.442;3.580;2023-07-08T12:32:25;8.52;;;5.43;;
45236;SDS011;30973;51.442;3.580;2023-07-08T12:34:53;6.68;;;5.78;;
45236;SDS011;30973;51.442;3.580;2023-07-08T12:37:20;7.60;;;5.38;;
45236;SDS011;30973;51.442;3.580;2023-07-08T12:39:57;9.48;;;5.45;;
45236;SDS011;30973;51.442;3.580;2023-07-08T12:42:30;7.07;;;5.60;;
45236;SDS011;30973;51.442;3.580;2023-07-08T12:44:57;6.50;;;5.15;;
45236;SDS011;30973;51.442;3.580;2023-07-08T12:47:24;7.43;;;5.22;;
45236;SDS011;30973;51.442;3.580;2023-07-08T12:49:51;9.30;;;5.15;;
45236;SDS011;30973;51.442;3.580;2023-07-08T12:52:22;10.23;;;6.47;;
45236;SDS011;30973;51.442;3.580;2023-07-08T12:54:49;9.40;;;6.68;;
45236;SDS011;30973;51.442;3.580;2023-07-08T12:57:16;8.13;;;6.00;;
45236;SDS011;30973;51.442;3.580;2023-07-08T12:59:44;9.15;;;5.75;;
45236;SDS011;30973;51.442;3.580;2023-07-08T13:02:15;8.43;;;5.53;;
45236;SDS011;30973;51.442;3.580;2023-07-08T13:04:44;10.38;;;5.70;;
45236;SDS011;30973;51.442;3.580;2023-07-08T13:07:22;9.25;;;5.40;;
45236;SDS011;30973;51.442;3.580;2023-07-08T13:09:51;6.43;;;5.25;;
45236;SDS011;30973;51.442;3.580;2023-07-08T13:12:18;6.97;;;5.93;;
45236;SDS011;30973;51.442;3.580;2023-07-08T13:14:48;10.13;;;5.47;;
45236;SDS011;30973;51.442;3.580;2023-07-08T13:17:15;9.48;;;5.50;;
45236;SDS011;30973;51.442;3.580;2023-07-08T13:19:43;7.63;;;5.72;;
45236;SDS011;30973;51.442;3.580;2023-07-08T13:22:14;9.77;;;5.68;;
45236;SDS011;30973;51.442;3.580;2023-07-08T13:24:42;8.30;;;5.95;;
45236;SDS011;30973;51.442;3.580;2023-07-08T13:27:16;7.30;;;5.22;;
45236;SDS011;30973;51.442;3.580;2023-07-08T13:29:44;8.35;;;5.25;;
45236;SDS011;30973;51.442;3.580;2023-07-08T13:32:11;10.65;;;5.60;;
45236;SDS011;30973;51.442;3.580;2023-07-08T13:34:38;7.88;;;5.32;;
45236;SDS011;30973;51.442;3.580;2023-07-08T13:37:08;9.20;;;5.53;;
45236;SDS011;30973;51.442;3.580;2023-07-08T13:39:35;8.40;;;5.30;;
45236;SDS011;30973;51.442;3.580;2023-07-08T13:42:03;5.90;;;5.18;;
45236;SDS011;30973;51.442;3.580;2023-07-08T13:44:30;7.07;;;5.07;;
45236;SDS011;30973;51.442;3.580;2023-07-08T13:46:57;7.18;;;5.50;;
45236;SDS011;30973;51.442;3.580;2023-07-08T13:49:27;8.02;;;5.53;;
45236;SDS011;30973;51.442;3.580;2023-07-08T13:54:44;8.45;;;5.93;;
45236;SDS011;30973;51.442;3.580;2023-07-08T13:57:15;8.60;;;5.25;;
45236;SDS011;30973;51.442;3.580;2023-07-08T13:59:42;6.45;;;5.45;;
45236;SDS011;30973;51.442;3.580;2023-07-08T14:02:16;6.53;;;5.88;;
45236;SDS011;30973;51.442;3.580;2023-07-08T14:04:44;8.75;;;5.68;;
45236;SDS011;30973;51.442;3.580;2023-07-08T14:07:21;8.93;;;6.20;;
45236;SDS011;30973;51.442;3.580;2023-07-08T14:09:48;8.75;;;5.80;;
45236;SDS011;30973;51.442;3.580;2023-07-08T14:12:15;8.10;;;5.97;;
45236;SDS011;30973;51.442;3.580;2023-07-08T14:14:42;8.90;;;5.75;;
45236;SDS011;30973;51.442;3.580;2023-07-08T14:17:12;8.77;;;5.65;;
45236;SDS011;30973;51.442;3.580;2023-07-08T14:19:40;6.25;;;5.32;;
45236;SDS011;30973;51.442;3.580;2023-07-08T14:22:20;7.47;;;5.22;;
45236;SDS011;30973;51.442;3.580;2023-07-08T14:24:48;6.22;;;5.57;;
45236;SDS011;30973;51.442;3.580;2023-07-08T14:27:14;8.13;;;5.82;;
45236;SDS011;30973;51.442;3.580;2023-07-08T14:29:43;7.60;;;5.75;;
45236;SDS011;30973;51.442;3.580;2023-07-08T14:32:16;7.25;;;5.13;;
45236;SDS011;30973;51.442;3.580;2023-07-08T14:34:43;8.10;;;5.20;;
45236;SDS011;30973;51.442;3.580;2023-07-08T14:37:14;7.30;;;5.50;;
45236;SDS011;30973;51.442;3.580;2023-07-08T14:39:41;7.68;;;5.80;;
45236;SDS011;30973;51.442;3.580;2023-07-08T14:42:11;7.38;;;5.10;;
45236;SDS011;30973;51.442;3.580;2023-07-08T14:44:39;8.70;;;5.47;;
45236;SDS011;30973;51.442;3.580;2023-07-08T14:47:10;8.32;;;5.63;;
45236;SDS011;30973;51.442;3.580;2023-07-08T14:49:37;7.43;;;5.43;;
45236;SDS011;30973;51.442;3.580;2023-07-08T14:52:04;9.23;;;5.65;;
45236;SDS011;30973;51.442;3.580;2023-07-08T14:54:31;6.90;;;5.00;;
45236;SDS011;30973;51.442;3.580;2023-07-08T14:56:58;9.00;;;5.40;;
45236;SDS011;30973;51.442;3.580;2023-07-08T14:59:26;7.43;;;5.03;;
45236;SDS011;30973;51.442;3.580;2023-07-08T15:01:54;8.65;;;4.80;;
45236;SDS011;30973;51.442;3.580;2023-07-08T15:04:22;6.85;;;4.70;;
45236;SDS011;30973;51.442;3.580;2023-07-08T15:06:48;5.80;;;5.05;;
45236;SDS011;30973;51.442;3.580;2023-07-08T15:09:18;6.50;;;5.20;;
45236;SDS011;30973;51.442;3.580;2023-07-08T15:11:45;6.97;;;5.38;;
45236;SDS011;30973;51.442;3.580;2023-07-08T15:14:18;7.45;;;5.20;;
45236;SDS011;30973;51.442;3.580;2023-07-08T15:16:46;7.32;;;5.30;;
45236;SDS011;30973;51.442;3.580;2023-07-08T15:19:13;9.40;;;5.68;;
45236;SDS011;30973;51.442;3.580;2023-07-08T15:21:40;8.95;;;5.30;;
45236;SDS011;30973;51.442;3.580;2023-07-08T15:24:08;8.82;;;6.10;;
45236;SDS011;30973;51.442;3.580;2023-07-08T15:26:34;9.48;;;6.30;;
45236;SDS011;30973;51.442;3.580;2023-07-08T15:29:01;9.98;;;5.90;;
45236;SDS011;30973;51.442;3.580;2023-07-08T15:31:28;9.93;;;6.10;;
45236;SDS011;30973;51.442;3.580;2023-07-08T15:33:57;8.02;;;5.60;;
45236;SDS011;30973;51.442;3.580;2023-07-08T15:36:24;8.93;;;5.70;;
45236;SDS011;30973;51.442;3.580;2023-07-08T15:38:50;7.25;;;5.70;;
45236;SDS011;30973;51.442;3.580;2023-07-08T15:41:19;7.07;;;5.40;;
45236;SDS011;30973;51.442;3.580;2023-07-08T15:43:47;10.05;;;8.15;;
45236;SDS011;30973;51.442;3.580;2023-07-08T15:46:14;15.13;;;10.07;;